Time;durP1;ratioP1;P1;durP2;ratioP2;P2;SDS_P1;SDS_P2;PMS_P1;PMS_P2;Temp;Humidity;BMP_temperature;BMP_pressure;BME280_temperature;BME280_humidity;BME280_pressure;Samples;Min_cycle;Max_cycle;Signal;HPM_P1;HPM_P2
2022/08/05 00:00:15;;;;;;;3.47;1.13;;;20.20;97.10;;;;;;5023427;28;20041;-38
2022/08/05 00:02:40;;;;;;;4.85;1.17;;;20.20;97.20;;;;;;5020705;28;20048;-38
2022/08/05 00:05:06;;;;;;;3.60;1.13;;;20.20;97.50;;;;;;5019629;28;20469;-39
2022/08/05 00:07:32;;;;;;;3.40;1.10;;;20.20;97.60;;;;;;5019301;28;20619;-38
2022/08/05 00:09:58;;;;;;;5.20;1.55;;;20.20;97.60;;;;;;5021501;28;20109;-41
2022/08/05 00:12:23;;;;;;;3.65;1.10;;;20.20;97.90;;;;;;5020665;28;20915;-39
2022/08/05 00:14:49;;;;;;;2.92;0.75;;;20.10;98.10;;;;;;5018191;28;20048;-39
2022/08/05 00:17:14;;;;;;;2.80;1.35;;;20.10;98.20;;;;;;5015738;28;20431;-37
2022/08/05 00:19:40;;;;;;;5.65;1.60;;;20.10;98.40;;;;;;5024272;28;20041;-40
2022/08/05 00:22:06;;;;;;;4.63;1.02;;;20.10;98.50;;;;;;5018256;28;20493;-41
2022/08/05 00:24:31;;;;;;;3.95;1.40;;;20.00;98.60;;;;;;5015877;28;20529;-38
2022/08/05 00:27:01;;;;;;;3.03;0.95;;;20.10;98.50;;;;;;5008938;28;20145;-39
2022/08/05 00:29:26;;;;;;;3.50;1.02;;;20.10;98.60;;;;;;5005256;28;21431;-38
2022/08/05 00:31:53;;;;;;;3.78;1.05;;;20.10;99.20;;;;;;5005424;28;20030;-41
2022/08/05 00:34:19;;;;;;;3.42;0.90;;;20.10;99.00;;;;;;5010422;28;20045;-42
2022/08/05 00:36:44;;;;;;;5.53;1.20;;;20.10;99.10;;;;;;5010496;28;20045;-39
2022/08/05 00:39:11;;;;;;;3.83;0.98;;;20.10;99.00;;;;;;5015328;28;20048;-38
2022/08/05 00:41:37;;;;;;;3.13;1.10;;;20.10;98.90;;;;;;5016928;28;20064;-39
2022/08/05 00:44:02;;;;;;;5.05;1.50;;;20.10;98.90;;;;;;5017287;28;20447;-38
2022/08/05 00:46:28;;;;;;;5.20;1.13;;;20.20;98.80;;;;;;5022907;28;20087;-40
2022/08/05 00:48:54;;;;;;;4.63;1.10;;;20.10;99.00;;;;;;5019903;28;20552;-41
2022/08/05 00:51:20;;;;;;;3.28;1.08;;;20.10;99.10;;;;;;5016133;28;20049;-39
2022/08/05 00:53:46;;;;;;;8.13;1.30;;;20.10;99.30;;;;;;5022527;28;20400;-39
2022/08/05 00:56:13;;;;;;;5.07;1.13;;;20.10;99.40;;;;;;5018593;28;20046;-37
2022/08/05 00:58:39;;;;;;;4.03;1.45;;;20.10;99.50;;;;;;5018556;28;20042;-39
2022/08/05 01:01:05;;;;;;;7.43;1.42;;;20.10;99.60;;;;;;5018080;28;20061;-37
2022/08/05 01:03:31;;;;;;;4.97;1.10;;;20.10;99.70;;;;;;5023756;28;20033;-39
2022/08/05 01:05:56;;;;;;;3.45;1.40;;;20.10;99.90;;;;;;5021988;28;20037;-38
2022/08/05 01:08:22;;;;;;;4.78;1.45;;;20.00;99.80;;;;;;5018257;28;20041;-41
2022/08/05 01:10:55;;;;;;;3.65;1.05;;;20.00;99.90;;;;;;5017780;28;20037;-39
2022/08/05 01:13:32;;;;;;;4.97;1.10;;;19.90;99.90;;;;;;5014522;28;20048;-39
2022/08/05 01:16:02;;;;;;;6.38;1.33;;;19.90;99.90;;;;;;5017490;28;20041;-39
2022/08/05 01:18:41;;;;;;;6.05;1.20;;;19.90;99.90;;;;;;5019515;28;20038;-39
2022/08/05 01:21:32;;;;;;;4.38;1.42;;;19.80;99.90;;;;;;5018962;28;20061;-38
2022/08/05 01:24:45;;;;;;;4.13;1.50;;;19.80;99.90;;;;;;5028348;28;20071;-41
2022/08/05 01:27:35;;;;;;;3.33;1.35;;;19.70;99.90;;;;;;5018168;28;20493;-38
2022/08/05 01:30:04;;;;;;;8.25;1.33;;;19.70;99.90;;;;;;5021869;28;20054;-35
2022/08/05 01:32:33;;;;;;;4.05;1.63;;;19.60;99.90;;;;;;5016908;28;20399;-39
2022/08/05 01:35:08;;;;;;;4.75;1.80;;;19.60;99.90;;;;;;5025610;28;20120;-39
2022/08/05 01:37:48;;;;;;;5.13;1.30;;;19.60;99.90;;;;;;5021409;28;20188;-37
2022/08/05 01:40:16;;;;;;;3.17;1.00;;;19.60;99.90;;;;;;5014568;28;20053;-39
2022/08/05 01:42:44;;;;;;;3.63;1.48;;;19.60;99.90;;;;;;5025477;28;20106;-39
2022/08/05 01:45:11;;;;;;;3.75;1.20;;;19.60;99.90;;;;;;5021844;28;20057;-38
2022/08/05 01:47:39;;;;;;;4.93;1.30;;;19.60;99.90;;;;;;5024305;28;20052;-39
2022/08/05 01:50:08;;;;;;;4.00;1.30;;;19.50;99.90;;;;;;5026329;28;20049;-38
2022/08/05 01:52:37;;;;;;;3.42;1.30;;;19.40;99.90;;;;;;5020737;28;20060;-40
2022/08/05 01:55:06;;;;;;;3.95;1.33;;;19.30;99.90;;;;;;5018336;28;20144;-38
2022/08/05 01:57:36;;;;;;;5.50;1.30;;;19.30;99.90;;;;;;5020345;28;20033;-38
2022/08/05 02:00:04;;;;;;;5.63;1.25;;;19.30;99.90;;;;;;5024562;28;20102;-37
2022/08/05 02:02:32;;;;;;;4.40;1.30;;;19.30;99.90;;;;;;5022672;28;20045;-39
2022/08/05 02:05:02;;;;;;;2.92;1.45;;;19.20;99.90;;;;;;5020043;28;20100;-38
2022/08/05 02:07:30;;;;;;;5.78;1.60;;;19.20;99.90;;;;;;5038494;28;20049;-38
2022/08/05 02:09:56;;;;;;;3.75;1.33;;;19.20;99.90;;;;;;5027087;28;20037;-41
2022/08/05 02:12:41;;;;;;;4.68;1.73;;;19.20;99.90;;;;;;5020737;28;20056;-39
2022/08/05 02:15:13;;;;;;;11.05;1.10;;;19.20;99.90;;;;;;5018417;28;20075;-38
2022/08/05 02:18:25;;;;;;;3.53;1.70;;;19.20;99.90;;;;;;5019485;28;20091;-38
2022/08/05 02:20:56;;;;;;;2.78;1.20;;;19.20;99.90;;;;;;5014618;28;20060;-38
2022/08/05 02:23:27;;;;;;;3.47;1.50;;;19.20;99.90;;;;;;5020644;28;20038;-40
2022/08/05 02:25:56;;;;;;;5.30;1.20;;;19.20;99.90;;;;;;5019778;28;20034;-38
2022/08/05 02:28:25;;;;;;;2.65;1.30;;;19.10;99.90;;;;;;5022972;28;20053;-38
2022/08/05 02:30:57;;;;;;;2.65;1.30;;;19.10;99.90;;;;;;5020893;28;20087;-38
2022/08/05 02:33:24;;;;;;;4.20;1.20;;;19.10;99.90;;;;;;5023128;28;20522;-39
2022/08/05 02:35:55;;;;;;;4.38;1.60;;;19.10;99.90;;;;;;5021604;28;20032;-40
2022/08/05 02:38:22;;;;;;;4.72;1.80;;;19.00;99.90;;;;;;5015417;28;20773;-41
2022/08/05 02:40:48;;;;;;;8.02;2.22;;;19.00;99.90;;;;;;5017552;28;20478;-38
2022/08/05 02:43:16;;;;;;;3.53;1.90;;;19.00;99.90;;;;;;5025152;28;20203;-38
2022/08/05 02:45:44;;;;;;;3.08;1.33;;;19.10;99.90;;;;;;5024610;28;20049;-40
2022/08/05 02:48:09;;;;;;;3.38;1.58;;;19.10;99.90;;;;;;5017794;28;20042;-39
2022/08/05 02:50:36;;;;;;;5.22;1.73;;;19.00;99.90;;;;;;5020285;28;20040;-38
2022/08/05 02:53:03;;;;;;;3.88;1.80;;;19.00;99.90;;;;;;5013270;28;20487;-38
2022/08/05 02:55:31;;;;;;;3.75;1.58;;;19.10;99.90;;;;;;5016588;28;20029;-38
2022/08/05 02:57:58;;;;;;;3.42;1.65;;;19.00;99.90;;;;;;5022098;28;20069;-38
2022/08/05 03:00:24;;;;;;;3.53;1.50;;;19.00;99.90;;;;;;5014347;28;20030;-40
2022/08/05 03:02:51;;;;;;;3.60;1.30;;;19.00;99.90;;;;;;5012127;28;20467;-38
2022/08/05 03:05:18;;;;;;;4.43;1.60;;;19.00;99.90;;;;;;5017609;28;20502;-40
2022/08/05 03:07:45;;;;;;;6.05;1.70;;;19.00;99.90;;;;;;5015053;28;20061;-38
2022/08/05 03:10:14;;;;;;;5.68;1.80;;;19.10;99.90;;;;;;5012926;28;20440;-41
2022/08/05 03:12:39;;;;;;;3.05;1.80;;;19.00;99.90;;;;;;5019944;28;20049;-40
2022/08/05 03:15:08;;;;;;;3.50;1.40;;;19.00;99.90;;;;;;5014501;28;20546;-38
2022/08/05 03:17:34;;;;;;;3.28;1.73;;;19.00;99.90;;;;;;5018217;28;20109;-38
2022/08/05 03:20:00;;;;;;;3.20;1.50;;;19.00;99.90;;;;;;5019049;28;20653;-38
2022/08/05 03:22:25;;;;;;;4.25;1.90;;;18.90;99.90;;;;;;5016207;28;20042;-40
2022/08/05 03:24:52;;;;;;;5.60;1.48;;;18.90;99.90;;;;;;5016871;28;20533;-38
2022/08/05 03:27:19;;;;;;;2.38;1.60;;;18.80;99.90;;;;;;5016909;28;20041;-38
2022/08/05 03:29:45;;;;;;;2.60;1.50;;;18.80;99.90;;;;;;5015891;28;20157;-40
2022/08/05 03:32:12;;;;;;;3.95;1.50;;;18.80;99.90;;;;;;5016434;28;20113;-38
2022/08/05 03:34:38;;;;;;;4.25;1.60;;;18.80;99.90;;;;;;5017129;28;20499;-40
2022/08/05 03:37:05;;;;;;;4.55;1.67;;;18.70;99.90;;;;;;5022221;28;20049;-37
2022/08/05 03:39:31;;;;;;;4.18;1.27;;;18.70;99.90;;;;;;5016894;28;20066;-38
2022/08/05 03:41:57;;;;;;;3.30;1.35;;;18.70;99.90;;;;;;5002218;28;20050;-38
2022/08/05 03:44:24;;;;;;;5.15;1.45;;;18.70;99.90;;;;;;5012704;28;20569;-37
2022/08/05 03:46:50;;;;;;;5.32;1.85;;;18.70;99.90;;;;;;5017941;28;20041;-39
2022/08/05 03:49:16;;;;;;;5.25;1.58;;;18.70;99.90;;;;;;5011831;28;20488;-35
2022/08/05 03:51:53;;;;;;;4.38;1.80;;;18.70;99.90;;;;;;5014446;28;20037;-38
2022/08/05 03:54:29;;;;;;;4.18;1.65;;;18.70;99.90;;;;;;5017352;28;20113;-38
2022/08/05 03:56:55;;;;;;;4.22;1.65;;;18.70;99.90;;;;;;5033948;28;20046;-38
2022/08/05 03:59:31;;;;;;;2.60;1.35;;;18.60;99.90;;;;;;5019349;28;20103;-40
2022/08/05 04:01:59;;;;;;;4.22;1.95;;;18.60;99.90;;;;;;5017192;28;20046;-37
2022/08/05 04:04:26;;;;;;;6.20;2.63;;;18.50;99.90;;;;;;5026800;28;20061;-38
2022/08/05 04:06:52;;;;;;;4.88;1.55;;;18.50;99.90;;;;;;5018641;28;20045;-38
2022/08/05 04:09:18;;;;;;;3.45;1.70;;;18.50;99.90;;;;;;5018901;28;20467;-39
2022/08/05 04:11:44;;;;;;;4.68;2.20;;;18.60;99.90;;;;;;5020604;28;20120;-41
2022/08/05 04:14:10;;;;;;;6.25;1.92;;;18.60;99.90;;;;;;5017085;28;20141;-38
2022/08/05 04:16:36;;;;;;;3.92;1.48;;;18.60;99.90;;;;;;5020360;28;20061;-40
2022/08/05 04:19:03;;;;;;;5.50;1.70;;;18.60;99.90;;;;;;5021983;28;20506;-38
2022/08/05 04:21:29;;;;;;;3.00;1.75;;;18.60;99.90;;;;;;5020338;28;20050;-38
2022/08/05 04:23:57;;;;;;;2.53;1.50;;;18.60;99.90;;;;;;5018474;28;20044;-40
2022/08/05 04:26:23;;;;;;;4.00;1.80;;;18.60;99.90;;;;;;5011367;28;20088;-40
2022/08/05 04:28:49;;;;;;;3.65;2.00;;;18.60;99.90;;;;;;5017868;28;20503;-40
2022/08/05 04:31:14;;;;;;;8.93;2.25;;;18.70;99.90;;;;;;5020236;28;20041;-38
2022/08/05 04:33:40;;;;;;;3.30;1.55;;;18.70;99.90;;;;;;5014916;28;20144;-38
2022/08/05 04:36:07;;;;;;;3.90;1.90;;;18.70;99.90;;;;;;5012741;28;20458;-38
2022/08/05 04:38:32;;;;;;;3.08;1.55;;;18.80;99.90;;;;;;5016749;28;20037;-39
2022/08/05 04:40:58;;;;;;;3.88;1.45;;;18.80;99.90;;;;;;5018239;28;20033;-37
2022/08/05 04:43:24;;;;;;;3.80;1.35;;;18.80;99.90;;;;;;5017691;28;20107;-38
2022/08/05 04:45:49;;;;;;;3.00;1.50;;;18.80;99.90;;;;;;5015098;28;20048;-38
2022/08/05 04:48:15;;;;;;;5.07;2.30;;;18.70;99.90;;;;;;5015925;28;20107;-38
2022/08/05 04:50:46;;;;;;;4.22;2.08;;;18.70;99.90;;;;;;5017728;28;20409;-38
2022/08/05 04:53:14;;;;;;;3.72;2.00;;;18.70;99.90;;;;;;5014005;28;20041;-38
2022/08/05 04:55:41;;;;;;;3.75;1.95;;;18.60;99.90;;;;;;5022215;28;20393;-38
2022/08/05 04:58:10;;;;;;;4.78;2.10;;;18.50;99.90;;;;;;5023120;28;20038;-38
2022/08/05 05:00:37;;;;;;;6.50;2.50;;;18.50;99.90;;;;;;5017548;28;20046;-38
2022/08/05 05:03:03;;;;;;;5.18;2.33;;;18.50;99.90;;;;;;5017974;28;20046;-37
2022/08/05 05:05:29;;;;;;;3.65;2.17;;;18.50;99.90;;;;;;5011165;28;20049;-38
2022/08/05 05:08:04;;;;;;;5.63;2.47;;;18.50;99.90;;;;;;5014318;28;20196;-38
2022/08/05 05:10:31;;;;;;;5.25;2.22;;;18.50;99.90;;;;;;5013149;28;20038;-41
2022/08/05 05:12:57;;;;;;;3.67;1.92;;;18.50;99.90;;;;;;5019272;28;20037;-37
2022/08/05 05:15:24;;;;;;;3.53;2.20;;;18.40;99.90;;;;;;5011745;28;20113;-35
2022/08/05 05:17:50;;;;;;;5.00;2.30;;;18.40;99.90;;;;;;5016321;28;20492;-38
2022/08/05 05:20:16;;;;;;;5.25;2.53;;;18.40;99.90;;;;;;5011337;28;20440;-36
2022/08/05 05:22:41;;;;;;;3.42;1.95;;;18.40;99.90;;;;;;5014129;28;20048;-37
2022/08/05 05:25:08;;;;;;;5.22;2.45;;;18.40;99.90;;;;;;5013305;28;20048;-37
2022/08/05 05:27:35;;;;;;;3.50;2.13;;;18.40;99.90;;;;;;5009661;28;20119;-38
2022/08/05 05:30:01;;;;;;;5.15;2.08;;;18.30;99.90;;;;;;5016284;28;20101;-36
2022/08/05 05:32:27;;;;;;;5.22;1.83;;;18.30;99.90;;;;;;5014298;28;20073;-40
2022/08/05 05:34:53;;;;;;;5.32;2.35;;;18.30;99.90;;;;;;5015164;28;20467;-35
2022/08/05 05:37:18;;;;;;;4.13;2.03;;;18.20;99.90;;;;;;5008910;28;20056;-38
2022/08/05 05:39:44;;;;;;;5.20;2.22;;;18.10;99.90;;;;;;5016341;28;20037;-39
2022/08/05 05:42:09;;;;;;;5.22;2.30;;;18.00;99.90;;;;;;5019065;28;20434;-37
2022/08/05 05:44:35;;;;;;;5.80;2.25;;;18.00;99.90;;;;;;5020638;28;20406;-38
2022/08/05 05:47:01;;;;;;;5.70;2.30;;;18.00;99.90;;;;;;5015158;28;20030;-39
2022/08/05 05:49:27;;;;;;;4.80;2.38;;;18.00;99.90;;;;;;5009521;28;20048;-38
2022/08/05 05:51:53;;;;;;;4.57;2.25;;;18.00;99.90;;;;;;5020074;28;20424;-38
2022/08/05 05:54:19;;;;;;;5.75;2.42;;;18.00;99.90;;;;;;5011989;28;20050;-38
2022/08/05 05:56:45;;;;;;;4.53;2.30;;;18.00;99.90;;;;;;5011514;28;20513;-38
2022/08/05 05:59:11;;;;;;;4.75;2.03;;;18.10;99.90;;;;;;5011134;28;20372;-38
2022/08/05 06:01:39;;;;;;;5.50;3.17;;;18.10;99.90;;;;;;5016277;28;20038;-38
2022/08/05 06:04:10;;;;;;;4.35;2.47;;;18.30;99.90;;;;;;5018023;28;20288;-38
2022/08/05 06:06:36;;;;;;;4.30;2.50;;;18.40;99.90;;;;;;5016126;28;20435;-38
2022/08/05 06:09:05;;;;;;;4.15;2.03;;;18.40;99.90;;;;;;5020717;28;20051;-38
2022/08/05 06:11:34;;;;;;;6.82;3.03;;;18.50;99.90;;;;;;5018490;28;20038;-38
2022/08/05 06:14:00;;;;;;;5.28;2.45;;;18.50;99.90;;;;;;5014151;28;20533;-37
2022/08/05 06:16:27;;;;;;;4.40;2.40;;;18.60;99.90;;;;;;5011019;28;20041;-38
2022/08/05 06:18:52;;;;;;;4.15;2.45;;;18.50;99.90;;;;;;5018973;28;20049;-39
2022/08/05 06:21:18;;;;;;;3.80;2.60;;;18.50;99.90;;;;;;5029287;28;20045;-38
2022/08/05 06:23:45;;;;;;;5.20;2.17;;;18.50;99.90;;;;;;5014980;28;20136;-38
2022/08/05 06:26:11;;;;;;;6.43;2.40;;;18.50;99.90;;;;;;5014548;28;20124;-35
2022/08/05 06:28:37;;;;;;;3.58;1.90;;;18.60;99.90;;;;;;5012511;28;20049;-38
2022/08/05 06:31:03;;;;;;;3.70;1.90;;;18.70;99.90;;;;;;5019491;28;20045;-36
2022/08/05 06:33:28;;;;;;;3.55;1.95;;;18.80;99.90;;;;;;5020289;28;20112;-38
2022/08/05 06:35:54;;;;;;;4.30;1.70;;;18.80;99.90;;;;;;5030543;28;20459;-38
2022/08/05 06:38:20;;;;;;;5.53;1.90;;;18.90;99.90;;;;;;5019383;28;20037;-38
2022/08/05 06:40:45;;;;;;;4.25;2.05;;;19.00;99.90;;;;;;5020625;28;20041;-36
2022/08/05 06:43:12;;;;;;;4.78;1.40;;;19.10;99.90;;;;;;5022861;28;20038;-38
2022/08/05 06:45:37;;;;;;;3.90;1.63;;;19.30;99.90;;;;;;5019378;28;20049;-40
2022/08/05 06:48:03;;;;;;;4.50;1.60;;;19.30;99.90;;;;;;5019033;28;20490;-38
2022/08/05 06:50:29;;;;;;;5.80;2.20;;;19.40;99.90;;;;;;5016986;28;20384;-36
2022/08/05 06:52:55;;;;;;;3.85;1.42;;;19.50;99.90;;;;;;5017817;28;20125;-41
2022/08/05 06:55:20;;;;;;;3.00;1.38;;;19.60;99.90;;;;;;5023156;28;20037;-38
2022/08/05 06:57:46;;;;;;;2.58;1.50;;;19.80;99.90;;;;;;5018331;28;20038;-38
2022/08/05 07:00:12;;;;;;;2.95;1.13;;;19.90;99.90;;;;;;5024680;28;20470;-38
2022/08/05 07:02:45;;;;;;;4.35;1.50;;;20.10;99.90;;;;;;5021060;28;20033;-40
2022/08/05 07:05:11;;;;;;;3.63;1.33;;;20.20;99.90;;;;;;5024591;28;20037;-39
2022/08/05 07:07:38;;;;;;;1.88;1.00;;;20.20;99.90;;;;;;5016727;28;20045;-41
2022/08/05 07:10:05;;;;;;;1.83;0.82;;;20.40;99.90;;;;;;5017977;28;20140;-38
2022/08/05 07:17:59;;;;;;;3.22;0.95;;;20.50;99.90;;;;;;5026208;28;20455;-37
2022/08/05 07:20:25;;;;;;;1.65;0.70;;;20.50;99.90;;;;;;5034009;28;20055;-39
2022/08/05 07:22:51;;;;;;;3.65;0.80;;;20.50;99.90;;;;;;5016056;28;20125;-40
2022/08/05 07:25:16;;;;;;;2.53;0.70;;;20.50;99.90;;;;;;5019677;28;20073;-39
2022/08/05 07:27:42;;;;;;;2.95;0.60;;;20.40;99.90;;;;;;5027273;28;20033;-39
2022/08/05 07:30:08;;;;;;;2.20;0.80;;;20.40;99.90;;;;;;5021642;28;20067;-39
2022/08/05 07:32:35;;;;;;;4.43;0.80;;;20.40;99.90;;;;;;5020492;28;20443;-39
2022/08/05 07:35:06;;;;;;;2.80;0.70;;;20.40;99.80;;;;;;5019182;28;20038;-39
2022/08/05 07:37:31;;;;;;;2.83;0.63;;;20.40;99.90;;;;;;5020027;28;20070;-38
2022/08/05 07:39:57;;;;;;;2.42;0.60;;;20.30;99.90;;;;;;5016071;28;20049;-40
2022/08/05 07:42:23;;;;;;;2.58;0.60;;;20.20;99.40;;;;;;5016028;28;20479;-40
2022/08/05 07:44:48;;;;;;;1.65;0.60;;;20.30;98.70;;;;;;5013696;28;20407;-38
2022/08/05 07:47:14;;;;;;;1.10;0.50;;;20.30;98.00;;;;;;5024761;28;20407;-39
2022/08/05 07:49:40;;;;;;;2.45;0.50;;;20.30;97.90;;;;;;5013919;28;20065;-39
2022/08/05 07:52:05;;;;;;;3.03;0.70;;;20.30;97.70;;;;;;5014452;28;20073;-39
2022/08/05 07:54:31;;;;;;;2.42;0.60;;;20.30;97.70;;;;;;5016140;28;20517;-39
2022/08/05 07:56:57;;;;;;;2.78;0.47;;;20.30;97.50;;;;;;5018409;28;20545;-41
2022/08/05 07:59:22;;;;;;;3.35;0.70;;;20.30;97.70;;;;;;5012674;28;20368;-38
2022/08/05 08:01:48;;;;;;;2.03;0.50;;;20.30;97.50;;;;;;5022495;28;20058;-41
2022/08/05 08:04:14;;;;;;;1.77;0.50;;;20.40;98.10;;;;;;5014300;28;20502;-39
2022/08/05 08:06:39;;;;;;;1.23;0.60;;;20.60;96.90;;;;;;5012311;28;20084;-43
2022/08/05 08:09:05;;;;;;;3.22;0.50;;;20.80;96.60;;;;;;5018744;28;20044;-39
2022/08/05 08:11:31;;;;;;;3.58;0.77;;;20.90;95.60;;;;;;5015209;28;20045;-39
2022/08/05 08:13:57;;;;;;;1.77;0.50;;;21.00;95.60;;;;;;5015851;28;20115;-39
2022/08/05 08:16:23;;;;;;;3.08;0.70;;;21.10;95.20;;;;;;5014929;28;20367;-39
2022/08/05 08:18:49;;;;;;;2.30;0.50;;;21.30;94.50;;;;;;5015189;28;20065;-39
2022/08/05 08:21:14;;;;;;;1.60;0.60;;;21.40;93.80;;;;;;5014518;28;20136;-41
2022/08/05 08:23:40;;;;;;;3.40;0.70;;;21.50;93.40;;;;;;5012877;28;20418;-39
2022/08/05 08:26:06;;;;;;;7.28;0.50;;;21.50;93.40;;;;;;5017196;28;20042;-39
2022/08/05 08:28:32;;;;;;;1.42;0.40;;;21.60;93.30;;;;;;5013370;28;20041;-39
2022/08/05 08:30:57;;;;;;;2.50;0.43;;;21.60;92.50;;;;;;5013301;28;20084;-39
2022/08/05 08:33:23;;;;;;;2.92;0.40;;;21.50;91.70;;;;;;5019859;28;20065;-39
2022/08/05 08:35:49;;;;;;;1.48;0.40;;;21.30;92.00;;;;;;5014202;28;20037;-39
2022/08/05 08:38:15;;;;;;;1.00;0.35;;;21.30;92.10;;;;;;5011577;28;20133;-39
2022/08/05 08:40:41;;;;;;;0.98;0.30;;;21.50;91.20;;;;;;5013036;28;20041;-41
2022/08/05 08:43:13;;;;;;;1.02;0.30;;;21.50;88.90;;;;;;5017997;28;20048;-36
2022/08/05 08:45:40;;;;;;;2.22;0.43;;;21.60;87.10;;;;;;5019492;28;20554;-39
2022/08/05 08:48:08;;;;;;;1.77;0.40;;;21.80;88.60;;;;;;5019078;28;20136;-39
2022/08/05 08:50:38;;;;;;;0.80;0.20;;;22.00;86.30;;;;;;5012872;28;20412;-42
2022/08/05 08:53:05;;;;;;;1.50;0.50;;;22.10;85.40;;;;;;5014054;28;20041;-40
2022/08/05 08:55:33;;;;;;;2.38;0.40;;;22.20;84.90;;;;;;5011038;28;20041;-41
2022/08/05 08:58:02;;;;;;;3.53;0.60;;;22.30;84.90;;;;;;5012251;28;20045;-40
2022/08/05 09:00:29;;;;;;;2.20;0.47;;;22.20;84.30;;;;;;5015816;28;20402;-38
2022/08/05 09:02:56;;;;;;;1.45;0.30;;;22.00;82.00;;;;;;5014457;28;20081;-41
2022/08/05 09:05:22;;;;;;;0.88;0.28;;;21.90;82.40;;;;;;5011815;28;20046;-39
2022/08/05 09:07:51;;;;;;;4.63;0.47;;;22.00;82.70;;;;;;5018353;28;20150;-41
2022/08/05 09:10:17;;;;;;;1.08;0.30;;;22.20;82.30;;;;;;5016767;28;20049;-39
2022/08/05 09:12:43;;;;;;;1.48;0.30;;;22.00;79.00;;;;;;5012931;28;20099;-40
2022/08/05 09:15:09;;;;;;;1.95;0.25;;;21.90;77.00;;;;;;5019713;28;20038;-39
2022/08/05 09:17:35;;;;;;;1.55;0.22;;;21.80;77.20;;;;;;5021206;28;20030;-40
2022/08/05 09:20:05;;;;;;;2.33;0.40;;;21.90;78.40;;;;;;5007949;28;20136;-37
2022/08/05 09:23:04;;;;;;;1.42;0.30;;;21.80;79.60;;;;;;5012894;28;20042;-40
2022/08/05 09:25:30;;;;;;;5.10;0.30;;;21.80;75.00;;;;;;5013994;28;20458;-40
2022/08/05 09:28:07;;;;;;;3.13;0.20;;;21.80;75.50;;;;;;5017834;28;20067;-40
2022/08/05 09:30:33;;;;;;;2.08;0.40;;;21.90;75.90;;;;;;5016615;28;20038;-41
2022/08/05 09:33:01;;;;;;;3.22;0.30;;;22.20;77.50;;;;;;5015767;28;20420;-36
2022/08/05 09:35:27;;;;;;;1.65;0.30;;;22.30;76.60;;;;;;5017910;28;20107;-39
2022/08/05 09:37:53;;;;;;;0.90;0.30;;;22.20;77.00;;;;;;5012773;28;20944;-39
2022/08/05 09:40:30;;;;;;;2.63;0.40;;;22.00;78.10;;;;;;5021223;28;20156;-39
2022/08/05 09:42:56;;;;;;;2.10;0.30;;;22.00;71.20;;;;;;5029387;28;20129;-39
2022/08/05 09:45:38;;;;;;;1.52;0.30;;;22.10;71.60;;;;;;5017099;28;20096;-39
2022/08/05 09:48:39;;;;;;;0.98;0.20;;;22.30;68.50;;;;;;5017546;28;20053;-39
2022/08/05 09:51:07;;;;;;;2.20;0.30;;;22.40;60.20;;;;;;4982035;28;20056;-39
2022/08/05 09:53:47;;;;;;;1.30;0.20;;;22.50;60.30;;;;;;5011220;28;20057;-38
2022/08/05 09:56:22;;;;;;;2.25;0.20;;;22.60;59.40;;;;;;5014519;28;20403;-38
2022/08/05 09:59:00;;;;;;;2.00;0.40;;;22.70;59.40;;;;;;5017110;28;20060;-38
2022/08/05 10:01:27;;;;;;;1.10;0.20;;;22.90;56.90;;;;;;5019263;28;20562;-38
2022/08/05 10:03:59;;;;;;;1.60;0.30;;;22.80;54.40;;;;;;5023505;28;20033;-38
2022/08/05 10:06:29;;;;;;;2.53;0.30;;;22.60;57.10;;;;;;5025939;28;20033;-37
2022/08/05 10:09:08;;;;;;;2.50;0.20;;;22.50;61.00;;;;;;5028643;28;20122;-38
2022/08/05 10:11:33;;;;;;;1.52;0.30;;;22.60;64.00;;;;;;5023741;28;20049;-38
2022/08/05 10:14:26;;;;;;;0.93;0.10;;;22.60;60.00;;;;;;5028068;28;20041;-38
2022/08/05 10:16:55;;;;;;;;;;;22.50;53.10;;;;;;5019530;28;20034;-38
2022/08/05 10:19:25;;;;;;;0.93;0.20;;;22.40;56.60;;;;;;5019235;28;20054;-38
2022/08/05 10:21:52;;;;;;;0.70;0.20;;;22.40;57.90;;;;;;5012755;28;20076;-40
2022/08/05 10:24:19;;;;;;;2.58;0.20;;;22.50;57.30;;;;;;5021046;28;20145;-38
2022/08/05 10:26:47;;;;;;;3.03;0.20;;;22.70;53.60;;;;;;5019558;28;20433;-36
2022/08/05 10:29:13;;;;;;;2.53;0.20;;;22.80;51.00;;;;;;5015703;28;20550;-37
2022/08/05 10:31:39;;;;;;;0.70;0.22;;;23.00;51.40;;;;;;5019323;28;21478;-39
2022/08/05 10:34:08;;;;;;;1.00;0.10;;;23.00;47.80;;;;;;5019258;28;20069;-35
2022/08/05 10:36:40;;;;;;;1.02;0.20;;;23.00;48.40;;;;;;5027269;28;20091;-38
2022/08/05 10:39:16;;;;;;;1.00;0.10;;;23.10;46.50;;;;;;5021257;28;20045;-38
2022/08/05 10:41:59;;;;;;;0.30;0.13;;;23.10;44.60;;;;;;5015691;28;20050;-38
2022/08/05 10:44:26;;;;;;;1.60;0.15;;;23.20;44.70;;;;;;5012295;28;20554;-38
2022/08/05 10:46:54;;;;;;;1.10;0.10;;;23.20;43.70;;;;;;5018000;28;20033;-35
2022/08/05 10:49:22;;;;;;;1.45;0.20;;;23.30;43.40;;;;;;5016777;28;20209;-38
2022/08/05 10:51:56;;;;;;;2.40;0.15;;;23.40;43.80;;;;;;5026437;28;20141;-40
2022/08/05 10:54:23;;;;;;;3.55;0.10;;;23.50;44.60;;;;;;5018998;28;20037;-38
2022/08/05 10:56:54;;;;;;;0.95;0.20;;;23.50;44.60;;;;;;5023304;28;20076;-38
2022/08/05 10:59:31;;;;;;;0.65;0.10;;;23.60;43.70;;;;;;5021082;28;20038;-38
2022/08/05 11:02:06;;;;;;;1.40;0.10;;;23.90;43.60;;;;;;5019081;28;20042;-38
2022/08/05 11:04:46;;;;;;;2.15;0.20;;;24.10;42.50;;;;;;5018033;28;20069;-40
2022/08/05 11:07:15;;;;;;;0.85;0.20;;;24.30;42.10;;;;;;5014245;28;20040;-39
2022/08/05 11:09:49;;;;;;;0.95;0.20;;;24.20;42.10;;;;;;5014274;28;20049;-36
2022/08/05 11:12:40;;;;;;;0.28;0.10;;;24.10;42.60;;;;;;5016638;28;20092;-37
2022/08/05 11:15:06;;;;;;;0.57;0.10;;;24.20;42.50;;;;;;5018125;28;20124;-39
2022/08/05 11:17:37;;;;;;;2.25;0.20;;;24.10;41.90;;;;;;5019606;28;20617;-38
2022/08/05 11:20:27;;;;;;;1.80;0.10;;;24.00;42.30;;;;;;5017010;28;20131;-37
2022/08/05 11:22:53;;;;;;;1.65;0.30;;;23.90;41.80;;;;;;5018220;28;20548;-39
2022/08/05 11:25:28;;;;;;;1.45;0.20;;;23.90;41.80;;;;;;5010155;28;21694;-41
2022/08/05 11:28:10;;;;;;;0.68;0.20;;;23.80;41.60;;;;;;5016598;28;20045;-41
2022/08/05 11:30:55;;;;;;;3.40;0.37;;;23.70;41.60;;;;;;5007273;28;20053;-38
2022/08/05 11:33:36;;;;;;;0.82;0.20;;;23.50;42.20;;;;;;5028975;28;20116;-40
2022/08/05 11:36:02;;;;;;;1.27;0.35;;;23.30;42.50;;;;;;5029095;28;20041;-39
2022/08/05 11:38:53;;;;;;;0.20;0.20;;;23.10;43.50;;;;;;5025271;28;20037;-39
2022/08/05 11:41:27;;;;;;;1.33;0.20;;;23.20;43.10;;;;;;5016585;28;20056;-39
2022/08/05 11:44:09;;;;;;;1.45;0.10;;;23.20;43.50;;;;;;5025380;28;20044;-38
2022/08/05 11:46:36;;;;;;;;;;;23.10;43.50;;;;;;5017985;28;20502;-38
2022/08/05 11:49:04;;;;;;;3.30;0.10;;;23.10;43.10;;;;;;5024623;28;19921;-39
2022/08/05 11:51:30;;;;;;;0.52;0.10;;;23.30;44.20;;;;;;5021244;28;20049;-45
2022/08/05 11:53:57;;;;;;;0.25;0.10;;;23.30;41.60;;;;;;5018938;28;20116;-37
2022/08/05 11:56:23;;;;;;;1.33;0.20;;;23.20;42.50;;;;;;5025180;28;20045;-41
2022/08/05 11:58:49;;;;;;;0.20;0.20;;;23.30;43.60;;;;;;5024447;28;20026;-42
2022/08/05 12:01:20;;;;;;;5.47;0.50;;;23.40;44.20;;;;;;5020762;28;20038;-42
2022/08/05 12:03:51;;;;;;;3.30;0.40;;;23.60;44.20;;;;;;5023057;28;20048;-40
2022/08/05 12:06:21;;;;;;;1.30;0.20;;;23.80;44.30;;;;;;5017761;28;20049;-41
2022/08/05 12:08:49;;;;;;;3.70;0.40;;;23.90;45.00;;;;;;5013117;28;20052;-42
2022/08/05 12:11:35;;;;;;;2.13;0.20;;;23.80;44.90;;;;;;5016519;28;20041;-43
2022/08/05 12:14:05;;;;;;;10.13;0.70;;;23.70;45.00;;;;;;5011750;28;20603;-41
2022/08/05 12:16:33;;;;;;;11.80;0.50;;;23.60;45.20;;;;;;5021154;28;20033;-42
2022/08/05 12:18:59;;;;;;;1.42;0.22;;;23.50;45.40;;;;;;5025996;28;20342;-36
2022/08/05 12:21:26;;;;;;;8.60;0.43;;;23.40;45.80;;;;;;5010323;28;20046;-45
2022/08/05 12:23:53;;;;;;;7.45;0.25;;;23.40;46.10;;;;;;5021166;28;20124;-41
2022/08/05 12:26:20;;;;;;;0.73;0.20;;;23.40;46.30;;;;;;5013684;28;20052;-40
2022/08/05 12:28:45;;;;;;;3.58;0.30;;;23.50;46.20;;;;;;5016971;28;20506;-47
2022/08/05 12:31:12;;;;;;;3.17;0.20;;;23.40;46.70;;;;;;5015191;28;20045;-40
2022/08/05 12:33:38;;;;;;;1.08;0.10;;;23.50;47.20;;;;;;5015301;28;20038;-43
2022/08/05 12:36:07;;;;;;;4.28;0.35;;;23.50;47.00;;;;;;5010844;28;20080;-42
2022/08/05 12:38:35;;;;;;;1.27;0.40;;;23.40;46.50;;;;;;5009468;28;20037;-38
2022/08/05 12:41:00;;;;;;;2.08;0.20;;;23.30;46.60;;;;;;5012325;28;20080;-44
2022/08/05 12:43:26;;;;;;;1.33;0.30;;;23.20;46.10;;;;;;5021760;28;20514;-40
2022/08/05 12:45:55;;;;;;;5.28;0.40;;;23.20;46.80;;;;;;5021473;28;20441;-40
2022/08/05 12:48:22;;;;;;;1.13;0.20;;;23.40;47.00;;;;;;5016038;28;20102;-40
2022/08/05 12:51:11;;;;;;;2.35;0.40;;;23.50;46.50;;;;;;5012780;28;20059;-43
2022/08/05 12:53:44;;;;;;;2.70;0.20;;;23.60;47.20;;;;;;5014302;28;20037;-48
2022/08/05 12:56:23;;;;;;;0.70;0.13;;;23.70;46.90;;;;;;5020446;28;20045;-43
2022/08/05 12:59:16;;;;;;;0.45;0.20;;;23.70;46.50;;;;;;5014267;28;20469;-44
2022/08/05 13:01:44;;;;;;;0.68;0.32;;;23.70;46.70;;;;;;5024555;28;20049;-43